Time;durP1;ratioP1;P1;durP2;ratioP2;P2;SDS_P1;SDS_P2;PMS_P1;PMS_P2;Temp;Humidity;BMP_temperature;BMP_pressure;BME280_temperature;BME280_humidity;BME280_pressure;Samples;Min_cycle;Max_cycle;Signal;HPM_P1;HPM_P2
2022/12/22 03:25:53;;;;;;;1.35;1.25;;;;;;;;;;5116746;28;20197;-68
2022/12/22 03:28:22;;;;;;;1.42;1.33;;;;;;;;;;5117738;28;20492;-68
2022/12/22 03:30:56;;;;;;;1.10;1.10;;;;;;;;;;5117382;28;20247;-68
2022/12/22 03:33:26;;;;;;;1.85;1.40;;;;;;;;;;5117578;28;20214;-68
2022/12/22 03:35:54;;;;;;;1.48;1.38;;;;;;;;;;5117290;28;20225;-68
2022/12/22 03:38:22;;;;;;;1.40;1.30;;;;;;;;;;5117239;28;20216;-68
2022/12/22 03:40:50;;;;;;;1.45;1.17;;;;;;;;;;5117213;28;20211;-68
2022/12/22 03:49:10;;;;;;;1.40;1.30;;;;;;;;;;5115146;28;20190;-68
2022/12/22 03:51:39;;;;;;;1.30;1.20;;;;;;;;;;5120932;28;20285;-68
2022/12/22 03:54:07;;;;;;;1.17;1.08;;;;;;;;;;5120190;28;20207;-68
2022/12/22 03:56:34;;;;;;;1.15;1.15;;;;;;;;;;5120809;28;20231;-68
2022/12/22 03:59:02;;;;;;;1.30;1.20;;;;;;;;;;5120387;28;20210;-68
2022/12/22 04:01:30;;;;;;;1.52;1.10;;;;;;;;;;5120307;28;20520;-68
2022/12/22 04:03:59;;;;;;;1.15;1.15;;;;;;;;;;5120593;28;20203;-68
2022/12/22 04:06:27;;;;;;;0.95;0.95;;;;;;;;;;5120523;28;20301;-68
2022/12/22 04:08:54;;;;;;;1.15;1.10;;;;;;;;;;5120377;28;20294;-68
2022/12/22 04:14:07;;;;;;;1.00;1.00;;;;;;;;;;5120158;28;20275;-67
2022/12/22 04:16:35;;;;;;;1.00;1.00;;;;;;;;;;5120466;28;20210;-68
2022/12/22 04:19:05;;;;;;;1.05;1.05;;;;;;;;;;5119804;28;20302;-68
2022/12/22 04:21:33;;;;;;;1.20;1.10;;;;;;;;;;5119917;28;20214;-68
2022/12/22 04:24:01;;;;;;;1.10;1.10;;;;;;;;;;5120238;28;20210;-68
2022/12/22 04:26:29;;;;;;;0.85;0.85;;;;;;;;;;5119564;28;20563;-68
2022/12/22 04:28:57;;;;;;;1.00;1.00;;;;;;;;;;5119933;28;20214;-68
2022/12/22 04:31:25;;;;;;;1.10;1.00;;;;;;;;;;5119926;28;20257;-68
2022/12/22 04:33:53;;;;;;;1.13;1.05;;;;;;;;;;5119714;28;20268;-68
2022/12/22 04:36:22;;;;;;;1.00;1.00;;;;;;;;;;5120025;28;20578;-68
2022/12/22 04:38:50;;;;;;;0.90;0.90;;;;;;;;;;5119786;28;20570;-68
2022/12/22 04:41:17;;;;;;;1.30;1.20;;;;;;;;;;5119922;28;20462;-67
2022/12/22 04:43:45;;;;;;;1.23;1.13;;;;;;;;;;5119593;28;20246;-68
2022/12/22 04:46:13;;;;;;;1.00;1.00;;;;;;;;;;5119682;28;20647;-68
2022/12/22 04:48:41;;;;;;;0.93;0.93;;;;;;;;;;5119976;28;20207;-68
2022/12/22 04:51:08;;;;;;;1.13;1.02;;;;;;;;;;5120089;28;20213;-68
2022/12/22 04:53:37;;;;;;;1.23;1.20;;;;;;;;;;5119444;28;20593;-68
2022/12/22 04:56:07;;;;;;;1.00;1.00;;;;;;;;;;5119072;28;20207;-68
2022/12/22 04:58:35;;;;;;;0.90;0.90;;;;;;;;;;5118810;28;20230;-68
2022/12/22 05:01:09;;;;;;;1.10;1.00;;;;;;;;;;5119183;28;20333;-68
2022/12/22 05:03:36;;;;;;;1.35;1.25;;;;;;;;;;5118842;28;20214;-68
2022/12/22 05:06:04;;;;;;;1.00;1.00;;;;;;;;;;5118974;28;20293;-68
2022/12/22 05:08:31;;;;;;;1.08;1.00;;;;;;;;;;5119270;28;20481;-68
2022/12/22 05:11:01;;;;;;;1.10;1.00;;;;;;;;;;5119354;28;20289;-68
2022/12/22 05:13:29;;;;;;;1.20;1.00;;;;;;;;;;5119308;28;20298;-68
2022/12/22 05:15:56;;;;;;;0.93;0.93;;;;;;;;;;5118807;28;20583;-68
2022/12/22 05:18:23;;;;;;;0.90;0.90;;;;;;;;;;5119169;28;20233;-68
2022/12/22 05:20:51;;;;;;;1.15;1.08;;;;;;;;;;5118839;28;20233;-68
2022/12/22 05:23:18;;;;;;;1.20;1.10;;;;;;;;;;5118826;28;20306;-68
2022/12/22 05:25:46;;;;;;;1.17;1.08;;;;;;;;;;5118543;28;20242;-68
2022/12/22 05:28:15;;;;;;;1.10;1.10;;;;;;;;;;5118258;28;20207;-68
2022/12/22 05:30:42;;;;;;;1.30;1.20;;;;;;;;;;5118705;28;20309;-68
2022/12/22 05:33:09;;;;;;;1.10;1.08;;;;;;;;;;5118686;28;20657;-68
2022/12/22 05:35:37;;;;;;;1.00;0.90;;;;;;;;;;5118893;28;20281;-68
2022/12/22 05:38:04;;;;;;;1.05;1.05;;;;;;;;;;5118466;28;20227;-68
2022/12/22 05:40:32;;;;;;;1.48;0.90;;;;;;;;;;5117954;28;20685;-68
2022/12/22 05:42:59;;;;;;;1.20;1.10;;;;;;;;;;5118429;28;20298;-68
2022/12/22 05:45:28;;;;;;;1.35;1.00;;;;;;;;;;5117820;28;20648;-68
2022/12/22 05:47:55;;;;;;;0.80;0.80;;;;;;;;;;5118230;28;20282;-68
2022/12/22 05:50:24;;;;;;;0.85;0.85;;;;;;;;;;5118003;28;20203;-68
2022/12/22 05:52:52;;;;;;;1.20;1.10;;;;;;;;;;5118316;28;20454;-68
2022/12/22 05:55:19;;;;;;;0.90;0.90;;;;;;;;;;5118203;28;20556;-68
2022/12/22 05:57:47;;;;;;;0.90;0.90;;;;;;;;;;5117664;28;20303;-68
2022/12/22 06:00:15;;;;;;;0.90;0.90;;;;;;;;;;5117433;28;20242;-68
2022/12/22 06:02:44;;;;;;;0.80;0.80;;;;;;;;;;5118149;28;20249;-68
2022/12/22 06:05:13;;;;;;;1.50;0.82;;;;;;;;;;5117994;28;20297;-68
2022/12/22 06:07:40;;;;;;;1.00;1.00;;;;;;;;;;5117757;28;20326;-68
2022/12/22 06:10:08;;;;;;;1.00;1.00;;;;;;;;;;5116916;28;20207;-68
2022/12/22 06:12:36;;;;;;;1.10;0.95;;;;;;;;;;5117678;28;20669;-68
2022/12/22 06:15:03;;;;;;;1.25;0.95;;;;;;;;;;5116898;28;20293;-68
2022/12/22 06:17:31;;;;;;;1.13;1.00;;;;;;;;;;5117102;28;20226;-68
2022/12/22 06:20:00;;;;;;;0.93;0.93;;;;;;;;;;5116820;28;20290;-68
2022/12/22 06:22:27;;;;;;;1.00;1.00;;;;;;;;;;5117330;28;20213;-68
2022/12/22 06:24:55;;;;;;;0.93;0.93;;;;;;;;;;5117174;28;20205;-68
2022/12/22 06:27:22;;;;;;;0.80;0.80;;;;;;;;;;5117169;28;20482;-68
2022/12/22 06:29:50;;;;;;;0.80;0.80;;;;;;;;;;5117263;28;20203;-68
2022/12/22 06:32:17;;;;;;;0.90;0.90;;;;;;;;;;5117061;28;20211;-68
2022/12/22 06:34:44;;;;;;;0.90;0.90;;;;;;;;;;5117000;28;20529;-68
2022/12/22 06:37:13;;;;;;;0.65;0.65;;;;;;;;;;5116735;28;20203;-68
2022/12/22 06:39:41;;;;;;;1.02;0.95;;;;;;;;;;5116514;28;20195;-68
2022/12/22 06:44:54;;;;;;;0.95;0.95;;;;;;;;;;5116022;28;20216;-68
2022/12/22 06:47:22;;;;;;;0.80;0.80;;;;;;;;;;5116424;28;20305;-68
2022/12/22 06:49:50;;;;;;;1.00;1.00;;;;;;;;;;5117105;28;20209;-68
2022/12/22 06:52:19;;;;;;;0.90;0.90;;;;;;;;;;5116551;28;20214;-68
2022/12/22 06:54:46;;;;;;;0.93;0.93;;;;;;;;;;5116748;28;20217;-68
2022/12/22 06:57:13;;;;;;;0.80;0.80;;;;;;;;;;5115553;28;20202;-68
2022/12/22 06:59:41;;;;;;;0.70;0.70;;;;;;;;;;5116324;28;20293;-68
2022/12/22 07:02:10;;;;;;;1.13;1.00;;;;;;;;;;5116318;28;20722;-68
2022/12/22 07:04:37;;;;;;;1.00;1.00;;;;;;;;;;5117016;28;20289;-68
2022/12/22 07:07:05;;;;;;;1.00;0.88;;;;;;;;;;5116622;28;20297;-68
2022/12/22 07:09:34;;;;;;;0.80;0.80;;;;;;;;;;5116207;28;20290;-68
2022/12/22 07:12:01;;;;;;;0.73;0.73;;;;;;;;;;5116282;28;20589;-68
2022/12/22 07:14:29;;;;;;;1.00;1.00;;;;;;;;;;5116837;28;20228;-67
2022/12/22 07:16:56;;;;;;;0.75;0.75;;;;;;;;;;5116424;28;20297;-68
2022/12/22 07:19:23;;;;;;;0.90;0.90;;;;;;;;;;5116580;28;20317;-68
2022/12/22 07:21:51;;;;;;;1.00;1.00;;;;;;;;;;5118120;28;20298;-68
2022/12/22 07:24:23;;;;;;;0.90;0.90;;;;;;;;;;5120295;28;20572;-68
2022/12/22 07:26:52;;;;;;;0.90;0.90;;;;;;;;;;5119822;28;20769;-68
2022/12/22 07:29:20;;;;;;;0.80;0.80;;;;;;;;;;5119926;28;20199;-68
2022/12/22 07:31:47;;;;;;;0.80;0.80;;;;;;;;;;5120021;28;20203;-67
2022/12/22 07:34:14;;;;;;;1.02;1.00;;;;;;;;;;5120019;28;20260;-67
2022/12/22 07:36:42;;;;;;;0.85;0.85;;;;;;;;;;5120328;28;20496;-68
2022/12/22 07:39:10;;;;;;;0.80;0.80;;;;;;;;;;5120118;28;20227;-68
2022/12/22 07:44:24;;;;;;;0.82;0.82;;;;;;;;;;5119737;28;20327;-68
2022/12/22 07:46:51;;;;;;;1.00;1.00;;;;;;;;;;5119253;28;20474;-67
2022/12/22 07:52:04;;;;;;;0.80;0.80;;;;;;;;;;5119888;28;20275;-67
2022/12/22 07:54:31;;;;;;;1.25;1.15;;;;;;;;;;5119320;28;20523;-68
2022/12/22 07:56:59;;;;;;;1.45;0.90;;;;;;;;;;5119691;28;20292;-68
2022/12/22 07:59:28;;;;;;;0.90;0.90;;;;;;;;;;5119661;28;20356;-68
2022/12/22 08:01:55;;;;;;;0.90;0.90;;;;;;;;;;5119086;28;20230;-68
2022/12/22 08:04:22;;;;;;;0.95;0.95;;;;;;;;;;5119368;28;20213;-68
2022/12/22 08:06:50;;;;;;;0.73;0.73;;;;;;;;;;5118596;28;20601;-68
2022/12/22 08:09:20;;;;;;;0.80;0.80;;;;;;;;;;5119064;28;20282;-68
2022/12/22 08:11:49;;;;;;;0.98;0.90;;;;;;;;;;5117954;28;20203;-68
2022/12/22 08:14:16;;;;;;;0.80;0.80;;;;;;;;;;5118529;28;20195;-68
2022/12/22 08:16:45;;;;;;;0.82;0.80;;;;;;;;;;5119018;28;20210;-68
2022/12/22 08:19:12;;;;;;;0.80;0.80;;;;;;;;;;5118807;28;20233;-68
2022/12/22 08:21:40;;;;;;;0.90;0.90;;;;;;;;;;5118925;28;20298;-68
2022/12/22 08:24:07;;;;;;;0.93;0.93;;;;;;;;;;5118225;28;20213;-68
2022/12/22 08:26:37;;;;;;;1.05;1.00;;;;;;;;;;5118423;28;20662;-68
2022/12/22 08:29:07;;;;;;;0.95;0.82;;;;;;;;;;5118082;28;20199;-68
2022/12/22 08:31:35;;;;;;;0.95;0.95;;;;;;;;;;5118666;28;20282;-68
2022/12/22 08:34:06;;;;;;;1.00;1.00;;;;;;;;;;5116989;28;20543;-68
2022/12/22 08:36:35;;;;;;;0.90;0.90;;;;;;;;;;5116960;28;20469;-68
2022/12/22 08:39:02;;;;;;;0.80;0.80;;;;;;;;;;5117694;28;20573;-68
2022/12/22 08:44:11;;;;;;;0.80;0.80;;;;;;;;;;5116268;28;20276;-68
2022/12/22 08:46:39;;;;;;;1.00;0.90;;;;;;;;;;5118207;28;20252;-68
2022/12/22 08:49:07;;;;;;;0.75;0.75;;;;;;;;;;5117473;28;20195;-68
2022/12/22 08:51:35;;;;;;;0.80;0.80;;;;;;;;;;5117586;28;20207;-67
2022/12/22 08:54:02;;;;;;;1.17;0.80;;;;;;;;;;5117288;28;20606;-68
2022/12/22 08:56:31;;;;;;;0.75;0.75;;;;;;;;;;5117622;28;20203;-68
2022/12/22 08:58:58;;;;;;;0.75;0.75;;;;;;;;;;5117222;28;20231;-68
2022/12/22 09:01:26;;;;;;;1.05;0.80;;;;;;;;;;5116805;28;20342;-68
2022/12/22 09:03:54;;;;;;;0.70;0.70;;;;;;;;;;5116675;28;20213;-68
2022/12/22 09:06:24;;;;;;;0.90;0.90;;;;;;;;;;5117532;28;20238;-68
2022/12/22 09:08:54;;;;;;;0.75;0.75;;;;;;;;;;5116647;28;20303;-68
2022/12/22 09:11:22;;;;;;;0.60;0.60;;;;;;;;;;5116841;28;20230;-68
2022/12/22 09:13:51;;;;;;;0.70;0.70;;;;;;;;;;5117164;28;20305;-68
2022/12/22 09:16:19;;;;;;;0.52;0.52;;;;;;;;;;5116067;28;20213;-67
2022/12/22 09:18:46;;;;;;;0.70;0.70;;;;;;;;;;5116816;28;20719;-67
2022/12/22 09:21:14;;;;;;;1.00;0.90;;;;;;;;;;5116778;28;20543;-67
2022/12/22 09:23:43;;;;;;;1.35;0.90;;;;;;;;;;5116750;28;20203;-67
2022/12/22 09:26:11;;;;;;;0.60;0.60;;;;;;;;;;5116532;28;20654;-68
2022/12/22 09:28:39;;;;;;;0.70;0.70;;;;;;;;;;5116058;28;20195;-67
2022/12/22 09:31:07;;;;;;;0.77;0.77;;;;;;;;;;5115952;28;20322;-67
2022/12/22 09:33:36;;;;;;;0.60;0.60;;;;;;;;;;5116262;28;20217;-67
2022/12/22 09:36:06;;;;;;;0.80;0.80;;;;;;;;;;5116401;28;20206;-68
2022/12/22 09:38:35;;;;;;;0.80;0.80;;;;;;;;;;5116718;28;20317;-67
2022/12/22 09:41:08;;;;;;;0.70;0.70;;;;;;;;;;5115548;28;20314;-68
2022/12/22 09:43:36;;;;;;;1.17;0.70;;;;;;;;;;5116520;28;20202;-68
2022/12/22 09:46:03;;;;;;;0.63;0.60;;;;;;;;;;5116334;28;20195;-68
2022/12/22 09:48:36;;;;;;;0.80;0.80;;;;;;;;;;5115666;28;20559;-68
2022/12/22 09:51:04;;;;;;;0.60;0.60;;;;;;;;;;5116457;28;20306;-67
2022/12/22 09:53:32;;;;;;;0.77;0.73;;;;;;;;;;5115224;28;20202;-67
2022/12/22 09:56:00;;;;;;;1.30;0.70;;;;;;;;;;5115977;28;20203;-68
2022/12/22 09:58:30;;;;;;;0.85;0.82;;;;;;;;;;5115726;28;20226;-68
2022/12/22 10:01:02;;;;;;;0.90;0.80;;;;;;;;;;5115687;28;20235;-67
2022/12/22 10:03:33;;;;;;;1.08;0.90;;;;;;;;;;5115491;28;20194;-68
2022/12/22 10:06:06;;;;;;;0.73;0.73;;;;;;;;;;5114846;28;20202;-68
2022/12/22 10:08:35;;;;;;;0.70;0.70;;;;;;;;;;5115684;28;20877;-68
2022/12/22 10:11:02;;;;;;;1.70;0.80;;;;;;;;;;5115586;28;20202;-67
2022/12/22 10:13:31;;;;;;;0.70;0.70;;;;;;;;;;5114996;28;20758;-67
2022/12/22 10:15:59;;;;;;;0.70;0.70;;;;;;;;;;5115540;28;20207;-68
2022/12/22 10:18:27;;;;;;;0.80;0.80;;;;;;;;;;5115614;28;20578;-68
2022/12/22 10:21:09;;;;;;;0.70;0.70;;;;;;;;;;5114865;28;20228;-67
2022/12/22 10:23:38;;;;;;;0.70;0.70;;;;;;;;;;5115293;28;20297;-68
2022/12/22 10:26:09;;;;;;;1.88;1.00;;;;;;;;;;5115995;28;20306;-68
2022/12/22 10:28:40;;;;;;;1.58;1.30;;;;;;;;;;5121615;27;20570;-68
2022/12/22 10:31:12;;;;;;;1.30;0.95;;;;;;;;;;5135170;27;20202;-67
2022/12/22 10:33:40;;;;;;;1.40;1.30;;;;;;;;;;5134337;27;20287;-67
2022/12/22 10:36:08;;;;;;;1.48;1.38;;;;;;;;;;5134858;27;20290;-68
2022/12/22 10:38:36;;;;;;;2.33;1.20;;;;;;;;;;5134992;27;20198;-68
2022/12/22 10:41:05;;;;;;;1.45;1.35;;;;;;;;;;5134461;27;20208;-68
2022/12/22 10:43:35;;;;;;;1.73;1.30;;;;;;;;;;5134362;27;20726;-68
2022/12/22 10:46:05;;;;;;;2.05;1.40;;;;;;;;;;5134310;27;20211;-68
2022/12/22 10:48:33;;;;;;;1.73;1.20;;;;;;;;;;5135307;27;20194;-68
2022/12/22 10:51:01;;;;;;;2.13;1.60;;;;;;;;;;5135640;28;20297;-68
2022/12/22 10:53:39;;;;;;;1.33;1.23;;;;;;;;;;5119275;28;20207;-68
2022/12/22 10:56:08;;;;;;;1.65;1.40;;;;;;;;;;5114563;28;20293;-68
2022/12/22 10:58:46;;;;;;;1.45;1.35;;;;;;;;;;5117888;28;20735;-67
2022/12/22 11:01:23;;;;;;;2.17;1.38;;;;;;;;;;5119282;28;20334;-67
2022/12/22 11:03:50;;;;;;;1.98;1.30;;;;;;;;;;5118715;28;20228;-68
2022/12/22 11:06:19;;;;;;;2.72;1.23;;;;;;;;;;5119787;28;20203;-68
2022/12/22 11:08:46;;;;;;;2.17;1.40;;;;;;;;;;5118231;28;20207;-68
2022/12/22 11:11:17;;;;;;;3.05;1.33;;;;;;;;;;5119264;28;20207;-70
2022/12/22 11:13:53;;;;;;;2.08;1.42;;;;;;;;;;5120632;27;20297;-64
2022/12/22 11:16:25;;;;;;;1.35;1.23;;;;;;;;;;5138159;27;20198;-64
2022/12/22 11:19:09;;;;;;;1.63;1.15;;;;;;;;;;5138806;27;20229;-64
2022/12/22 11:21:40;;;;;;;2.28;1.10;;;;;;;;;;5138559;27;20198;-64
2022/12/22 11:24:15;;;;;;;1.65;1.20;;;;;;;;;;5139323;27;20297;-64
2022/12/22 11:26:48;;;;;;;1.48;1.27;;;;;;;;;;5139202;27;20202;-64
2022/12/22 11:29:22;;;;;;;1.20;1.10;;;;;;;;;;5139802;27;20673;-64
2022/12/22 11:31:59;;;;;;;2.45;1.20;;;;;;;;;;5139097;27;20304;-64
2022/12/22 11:34:36;;;;;;;1.33;1.00;;;;;;;;;;5140127;27;20585;-63
2022/12/22 11:37:07;;;;;;;1.20;1.10;;;;;;;;;;5138767;27;20269;-64
2022/12/22 11:39:38;;;;;;;1.98;1.15;;;;;;;;;;5138677;27;20269;-64
2022/12/22 11:42:10;;;;;;;0.98;0.88;;;;;;;;;;5138391;27;20608;-64
2022/12/22 11:44:40;;;;;;;2.60;1.20;;;;;;;;;;5138824;27;20722;-64
2022/12/22 11:47:15;;;;;;;1.02;0.95;;;;;;;;;;5138154;27;20208;-63
2022/12/22 11:49:47;;;;;;;0.90;0.90;;;;;;;;;;5138015;27;20672;-63
2022/12/22 11:52:19;;;;;;;2.10;1.05;;;;;;;;;;5138670;27;20301;-63
2022/12/22 11:55:04;;;;;;;1.70;0.95;;;;;;;;;;5138953;27;20639;-63
2022/12/22 11:57:35;;;;;;;0.75;0.75;;;;;;;;;;5138891;27;20302;-64
2022/12/22 12:00:06;;;;;;;1.83;0.80;;;;;;;;;;5139196;27;20214;-65
2022/12/22 12:02:49;;;;;;;1.13;0.90;;;;;;;;;;5138680;27;20237;-64
2022/12/22 12:05:29;;;;;;;1.10;0.80;;;;;;;;;;5137840;27;20682;-64
2022/12/22 12:08:05;;;;;;;1.30;1.10;;;;;;;;;;5137962;27;20243;-63
2022/12/22 12:10:35;;;;;;;1.88;1.20;;;;;;;;;;5137952;27;20633;-63
2022/12/22 12:13:09;;;;;;;1.13;1.00;;;;;;;;;;5138987;27;20454;-63
2022/12/22 12:15:39;;;;;;;1.33;1.10;;;;;;;;;;5138176;27;20200;-64
2022/12/22 12:18:17;;;;;;;1.35;1.00;;;;;;;;;;5138287;27;20234;-63
2022/12/22 12:20:50;;;;;;;1.25;1.00;;;;;;;;;;5137039;27;20260;-64
2022/12/22 12:23:38;;;;;;;2.63;0.90;;;;;;;;;;5137626;27;20241;-66
2022/12/22 12:26:09;;;;;;;1.77;0.90;;;;;;;;;;5131206;27;20297;-65
2022/12/22 12:28:43;;;;;;;1.33;1.00;;;;;;;;;;5137601;27;20684;-65
2022/12/22 12:31:13;;;;;;;1.25;0.80;;;;;;;;;;5137460;27;20203;-65
2022/12/22 12:33:45;;;;;;;1.15;0.82;;;;;;;;;;5137410;27;20603;-64
2022/12/22 12:36:18;;;;;;;1.13;1.02;;;;;;;;;;5137388;27;20805;-64
2022/12/22 12:38:50;;;;;;;1.00;0.90;;;;;;;;;;5136861;27;20256;-65
2022/12/22 12:43:54;;;;;;;1.30;0.82;;;;;;;;;;5393079;22;20258;-65
2022/12/22 12:46:39;;;;;;;1.10;0.90;;;;;;;;;;5093860;28;20195;-63
2022/12/22 12:49:27;;;;;;;2.75;0.90;;;;;;;;;;5094089;28;20598;-64
2022/12/22 12:51:56;;;;;;;1.58;0.82;;;;;;;;;;5093997;28;20204;-65
2022/12/22 12:54:35;;;;;;;2.15;1.27;;;;;;;;;;5093823;28;20338;-64
2022/12/22 12:57:10;;;;;;;6.72;5.05;;;;;;;;;;5093494;28;20210;-65
2022/12/22 12:59:47;;;;;;;7.15;6.28;;;;;;;;;;5094784;28;20596;-64
2022/12/22 13:02:29;;;;;;;6.88;5.57;;;;;;;;;;5095368;28;20571;-64
2022/12/22 13:05:15;;;;;;;6.70;5.70;;;;;;;;;;5090108;28;20242;-64
2022/12/22 13:08:01;;;;;;;6.35;5.28;;;;;;;;;;5093128;28;20476;-65
2022/12/22 13:10:30;;;;;;;5.93;4.93;;;;;;;;;;5093557;28;20630;-65
2022/12/22 13:12:57;;;;;;;5.95;4.75;;;;;;;;;;5093227;28;20203;-65
2022/12/22 13:15:31;;;;;;;5.32;4.55;;;;;;;;;;5093081;28;20203;-64
2022/12/22 13:17:59;;;;;;;5.70;4.20;;;;;;;;;;5093701;28;20279;-66
2022/12/22 13:20:28;;;;;;;6.20;3.95;;;;;;;;;;5093091;28;20220;-64
2022/12/22 13:22:57;;;;;;;4.55;3.97;;;;;;;;;;5093161;28;20196;-64
2022/12/22 13:25:26;;;;;;;4.93;4.30;;;;;;;;;;5091985;28;20225;-64
2022/12/22 13:27:55;;;;;;;4.63;3.85;;;;;;;;;;5092539;28;20207;-64
2022/12/22 13:30:23;;;;;;;5.38;3.65;;;;;;;;;;5093949;28;20294;-65
2022/12/22 13:32:51;;;;;;;8.05;4.05;;;;;;;;;;5093645;28;20778;-65
2022/12/22 13:35:22;;;;;;;6.53;3.88;;;;;;;;;;5092712;28;20243;-66
2022/12/22 13:37:52;;;;;;;4.55;3.20;;;;;;;;;;5092561;28;20196;-65
2022/12/22 13:40:21;;;;;;;5.30;3.47;;;;;;;;;;5092316;28;20312;-65
2022/12/22 13:42:51;;;;;;;3.63;3.00;;;;;;;;;;5091982;28;20231;-65
2022/12/22 13:45:24;;;;;;;3.55;3.10;;;;;;;;;;5093022;28;20290;-66
2022/12/22 13:47:51;;;;;;;4.78;3.08;;;;;;;;;;5093169;28;20203;-65
2022/12/22 13:50:21;;;;;;;4.70;3.22;;;;;;;;;;5091530;28;20354;-65
2022/12/22 13:52:49;;;;;;;3.30;2.65;;;;;;;;;;5091205;28;20202;-64
2022/12/22 13:55:17;;;;;;;4.15;2.75;;;;;;;;;;5092456;28;20538;-65
2022/12/22 13:57:44;;;;;;;4.03;2.60;;;;;;;;;;5092697;28;20235;-64
2022/12/22 14:00:19;;;;;;;3.45;2.42;;;;;;;;;;5088819;28;20224;-65
2022/12/22 14:02:49;;;;;;;2.90;2.40;;;;;;;;;;5090421;28;20662;-64
2022/12/22 14:05:16;;;;;;;3.42;2.75;;;;;;;;;;5091316;28;20192;-64
2022/12/22 14:08:03;;;;;;;2.08;1.88;;;;;;;;;;5091297;28;20558;-64
2022/12/22 14:10:33;;;;;;;3.88;2.20;;;;;;;;;;5087782;28;20211;-65
2022/12/22 14:13:02;;;;;;;2.30;2.10;;;;;;;;;;5090850;28;20291;-65
2022/12/22 14:15:29;;;;;;;2.38;2.17;;;;;;;;;;5091707;28;20265;-64
2022/12/22 14:17:59;;;;;;;2.90;2.13;;;;;;;;;;5092085;28;20210;-64
2022/12/22 14:20:28;;;;;;;1.73;1.60;;;;;;;;;;5091230;28;20214;-67
2022/12/22 14:22:56;;;;;;;2.00;1.63;;;;;;;;;;5091486;28;20202;-65
2022/12/22 14:25:25;;;;;;;2.10;1.70;;;;;;;;;;5091158;28;20192;-65
2022/12/22 14:27:54;;;;;;;2.85;1.58;;;;;;;;;;5089271;28;20283;-65
2022/12/22 14:30:22;;;;;;;2.63;1.63;;;;;;;;;;5089803;28;20209;-66
2022/12/22 14:32:50;;;;;;;1.80;1.67;;;;;;;;;;5090696;28;20328;-65
2022/12/22 14:35:25;;;;;;;1.75;1.65;;;;;;;;;;5090700;28;20239;-65
2022/12/22 14:37:53;;;;;;;2.10;1.50;;;;;;;;;;5089769;28;20199;-65
2022/12/22 14:40:33;;;;;;;2.05;1.40;;;;;;;;;;5092140;28;20354;-64
2022/12/22 14:43:01;;;;;;;1.67;1.52;;;;;;;;;;5091664;28;20235;-65
2022/12/22 14:45:29;;;;;;;1.65;1.40;;;;;;;;;;5091430;28;20196;-65
2022/12/22 14:47:56;;;;;;;2.55;2.35;;;;;;;;;;5093339;28;20298;-64
2022/12/22 14:50:26;;;;;;;4.40;4.00;;;;;;;;;;5094453;28;20199;-64
2022/12/22 14:52:55;;;;;;;4.50;3.00;;;;;;;;;;5093652;28;20618;-65
2022/12/22 14:55:24;;;;;;;3.25;2.78;;;;;;;;;;5093612;28;20680;-65
2022/12/22 14:57:54;;;;;;;2.70;2.50;;;;;;;;;;5093008;28;20677;-65
2022/12/22 15:00:33;;;;;;;2.58;2.38;;;;;;;;;;5094675;28;20223;-65
2022/12/22 15:03:01;;;;;;;2.60;2.40;;;;;;;;;;5092620;28;20195;-65
2022/12/22 15:05:31;;;;;;;2.53;2.30;;;;;;;;;;5093592;28;20275;-65
2022/12/22 15:07:59;;;;;;;3.28;2.60;;;;;;;;;;5093306;28;20261;-65
2022/12/22 15:10:27;;;;;;;2.42;2.22;;;;;;;;;;5094039;28;20227;-65
2022/12/22 15:13:00;;;;;;;2.28;2.08;;;;;;;;;;5089845;28;20674;-65
2022/12/22 15:15:30;;;;;;;2.35;2.15;;;;;;;;;;5092231;28;20261;-65
2022/12/22 15:17:57;;;;;;;2.33;2.15;;;;;;;;;;5092658;28;20231;-65
2022/12/22 15:20:26;;;;;;;2.25;2.08;;;;;;;;;;5092018;28;20289;-64
2022/12/22 15:22:55;;;;;;;2.50;2.30;;;;;;;;;;5089789;28;20294;-65
2022/12/22 15:25:23;;;;;;;2.08;1.98;;;;;;;;;;5092083;28;20230;-65
2022/12/22 15:27:51;;;;;;;3.92;2.10;;;;;;;;;;5091818;28;20192;-65
2022/12/22 15:30:19;;;;;;;1.85;1.70;;;;;;;;;;5092105;28;20192;-64
2022/12/22 15:32:46;;;;;;;2.03;1.90;;;;;;;;;;5092258;28;20210;-65
2022/12/22 15:35:22;;;;;;;20.10;18.33;;;;;;;;;;5093850;28;20227;-65
2022/12/22 15:37:50;;;;;;;12.15;11.15;;;;;;;;;;5091842;28;20306;-65
2022/12/22 15:40:19;;;;;;;10.20;9.30;;;;;;;;;;5075300;28;20320;-65
2022/12/22 15:42:47;;;;;;;10.35;9.52;;;;;;;;;;5074456;28;20319;-65
2022/12/22 15:45:15;;;;;;;10.68;9.70;;;;;;;;;;5077230;28;20358;-65
2022/12/22 15:47:45;;;;;;;9.45;8.65;;;;;;;;;;5076598;28;20283;-65
2022/12/22 15:50:18;;;;;;;9.77;8.88;;;;;;;;;;5077123;28;20235;-65
2022/12/22 15:52:48;;;;;;;9.00;8.20;;;;;;;;;;5076433;28;20567;-65
2022/12/22 15:55:16;;;;;;;9.18;8.27;;;;;;;;;;5074908;28;20300;-65
2022/12/22 15:57:45;;;;;;;8.30;7.60;;;;;;;;;;5074671;28;20218;-65
2022/12/22 16:00:14;;;;;;;7.80;7.10;;;;;;;;;;5073311;28;20680;-65
2022/12/22 16:02:41;;;;;;;7.35;6.70;;;;;;;;;;5074570;28;20204;-64
2022/12/22 16:05:10;;;;;;;7.28;6.57;;;;;;;;;;5074461;28;20211;-65
2022/12/22 16:07:38;;;;;;;7.07;6.40;;;;;;;;;;5073467;28;20211;-64
2022/12/22 16:10:06;;;;;;;6.88;6.22;;;;;;;;;;5074458;28;20214;-65
2022/12/22 16:12:36;;;;;;;6.70;6.10;;;;;;;;;;5073711;28;20211;-64
2022/12/22 16:15:05;;;;;;;5.95;5.45;;;;;;;;;;5075265;28;20228;-64
2022/12/22 16:17:33;;;;;;;5.82;5.32;;;;;;;;;;5075182;28;20262;-64
2022/12/22 16:20:00;;;;;;;5.82;5.32;;;;;;;;;;5074479;28;20215;-64
2022/12/22 16:22:32;;;;;;;5.55;5.05;;;;;;;;;;5073511;28;20471;-64
2022/12/22 16:24:59;;;;;;;5.90;5.40;;;;;;;;;;5073666;28;20205;-65
2022/12/22 16:27:28;;;;;;;5.25;4.75;;;;;;;;;;5076396;28;20212;-65
2022/12/22 16:29:55;;;;;;;5.07;4.57;;;;;;;;;;5073837;28;20207;-64
2022/12/22 16:32:28;;;;;;;5.03;4.55;;;;;;;;;;5075013;28;20192;-65
2022/12/22 16:35:14;;;;;;;4.70;4.30;;;;;;;;;;5074525;28;20210;-65
2022/12/22 16:37:42;;;;;;;4.57;4.18;;;;;;;;;;5074259;28;20208;-65
2022/12/22 16:40:10;;;;;;;4.60;4.22;;;;;;;;;;5074411;28;20254;-65
2022/12/22 16:42:38;;;;;;;4.32;3.95;;;;;;;;;;5072218;28;20278;-64
2022/12/22 16:45:07;;;;;;;4.15;3.85;;;;;;;;;;5074914;28;20214;-65
2022/12/22 16:47:36;;;;;;;4.00;3.70;;;;;;;;;;5074561;28;20218;-65
2022/12/22 16:50:04;;;;;;;3.97;3.55;;;;;;;;;;5073775;28;20204;-65
2022/12/22 16:52:36;;;;;;;3.30;3.10;;;;;;;;;;5073973;28;20594;-64
2022/12/22 16:55:06;;;;;;;3.70;3.40;;;;;;;;;;5073415;28;20212;-65
2022/12/22 16:57:34;;;;;;;3.58;3.28;;;;;;;;;;5073949;28;20239;-64
2022/12/22 17:00:01;;;;;;;2.95;2.75;;;;;;;;;;5074378;28;20257;-64
2022/12/22 17:02:31;;;;;;;3.13;2.92;;;;;;;;;;5075143;28;20220;-64
2022/12/22 17:05:01;;;;;;;3.25;3.05;;;;;;;;;;5075373;28;20311;-64
2022/12/22 17:07:28;;;;;;;3.03;2.83;;;;;;;;;;5073551;28;20210;-65
2022/12/22 17:09:58;;;;;;;2.90;2.70;;;;;;;;;;5074370;28;20298;-64
2022/12/22 17:12:28;;;;;;;2.88;2.67;;;;;;;;;;5074149;28;20271;-64
2022/12/22 17:14:58;;;;;;;2.95;2.75;;;;;;;;;;5073584;28;20299;-64
2022/12/22 17:17:25;;;;;;;2.40;2.30;;;;;;;;;;5074197;28;20303;-64
2022/12/22 17:19:53;;;;;;;2.53;2.33;;;;;;;;;;5074469;28;20269;-65
2022/12/22 17:22:23;;;;;;;2.83;2.63;;;;;;;;;;5072741;28;20533;-64
2022/12/22 17:24:52;;;;;;;2.40;2.20;;;;;;;;;;5074299;28;20204;-64
2022/12/22 17:27:21;;;;;;;2.42;2.22;;;;;;;;;;5074945;28;20496;-64
2022/12/22 17:29:49;;;;;;;2.40;2.20;;;;;;;;;;5073884;28;20579;-64
2022/12/22 17:32:17;;;;;;;2.45;2.25;;;;;;;;;;5074367;28;20208;-64
2022/12/22 17:34:44;;;;;;;2.10;2.00;;;;;;;;;;5073539;28;20591;-64
2022/12/22 17:37:15;;;;;;;2.22;2.13;;;;;;;;;;5073442;28;20215;-64
2022/12/22 17:39:44;;;;;;;2.20;2.10;;;;;;;;;;5072357;28;20200;-64
2022/12/22 17:42:16;;;;;;;2.22;2.10;;;;;;;;;;5073583;28;20228;-64
2022/12/22 17:44:44;;;;;;;1.80;1.70;;;;;;;;;;5074168;28;20295;-65
2022/12/22 17:47:13;;;;;;;2.00;1.90;;;;;;;;;;5073920;28;20212;-64
2022/12/22 17:49:40;;;;;;;1.83;1.70;;;;;;;;;;5074412;28;20209;-65
2022/12/22 17:52:12;;;;;;;1.80;1.70;;;;;;;;;;5073639;28;20226;-64
2022/12/22 17:54:40;;;;;;;1.80;1.70;;;;;;;;;;5073192;28;20485;-64
2022/12/22 17:57:14;;;;;;;1.77;1.67;;;;;;;;;;5073551;28;20238;-65
2022/12/22 17:59:41;;;;;;;1.70;1.60;;;;;;;;;;5074237;28;20303;-64
2022/12/22 18:02:11;;;;;;;1.80;1.70;;;;;;;;;;5074446;28;20323;-65
2022/12/22 18:04:39;;;;;;;1.75;1.65;;;;;;;;;;5073656;28;20303;-65
2022/12/22 18:07:06;;;;;;;2.47;1.70;;;;;;;;;;5075245;28;20215;-65
2022/12/22 18:09:34;;;;;;;1.58;1.40;;;;;;;;;;5073204;28;20208;-65
2022/12/22 18:12:01;;;;;;;1.88;1.48;;;;;;;;;;5073942;28;20287;-65
2022/12/22 18:14:30;;;;;;;2.33;1.70;;;;;;;;;;5072988;28;20214;-65
2022/12/22 18:16:57;;;;;;;1.75;1.55;;;;;;;;;;5073560;28;20204;-65
2022/12/22 18:19:25;;;;;;;1.65;1.52;;;;;;;;;;5073676;28;20201;-65
2022/12/22 18:21:52;;;;;;;1.70;1.60;;;;;;;;;;5073871;28;20219;-65
2022/12/22 18:24:20;;;;;;;1.50;1.40;;;;;;;;;;5074538;28;20236;-65
2022/12/22 18:26:47;;;;;;;1.50;1.40;;;;;;;;;;5073186;28;20552;-65
2022/12/22 18:29:15;;;;;;;1.30;1.20;;;;;;;;;;5074246;28;20207;-65
2022/12/22 18:31:44;;;;;;;1.33;1.23;;;;;;;;;;5073407;28;20193;-65
2022/12/22 18:34:11;;;;;;;1.48;1.38;;;;;;;;;;5073593;28;20207;-65
2022/12/22 18:36:41;;;;;;;1.40;1.30;;;;;;;;;;5074502;28;20208;-65
2022/12/22 18:39:14;;;;;;;1.05;1.02;;;;;;;;;;5074679;28;20269;-65
2022/12/22 18:41:41;;;;;;;1.27;1.17;;;;;;;;;;5074309;28;20228;-64
2022/12/22 18:44:13;;;;;;;1.17;1.05;;;;;;;;;;5074110;28;20236;-65